Concerto — JJ3855 — position and weather

sailwx.info

Track history (hours):
 
Tides and Currents Weather Stations Pressure Air Temp Water Temp Dewpoint Dewpoint Depression Visibility Wind Speed Wind Dir Waves Ship Positions

Concerto

Last reported at 2014-Sep-01 11:33 UTC. Time now 2014-Sep-02 23:46 UTC.
Position N 34°38' E 135°11'.

Length 62 m; draft 3 m.

Type: Passenger vessel. MMSI: 431000448.

Date/timePositionNaut miles runAvg speedWind from/ knotsBaromVisibWave heightAir tempDewpointWater temp
2014-Sep-01 11:33N 34°38' E 135°11'2 1.7
2014-Sep-01 10:33N 34°40' E 135°11'1 0.8
2014-Sep-01 09:33N 34°39' E 135°11'1 0.7
2014-Sep-01 08:33N 34°38' E 135°11'2 2.3
2014-Sep-01 07:32N 34°41' E 135°11'4 3.6
2014-Sep-01 06:33N 34°38' E 135°09'4 3.1
2014-Sep-01 05:25N 34°41' E 135°11'1 0.8
2014-Sep-01 04:33N 34°40' E 135°12'3 3.0
2014-Sep-01 03:33N 34°38' E 135°09'3 3.3
2014-Sep-01 02:33N 34°41' E 135°11'3 0.2
2014-Aug-31 11:33N 34°38' E 135°10'3 2.6
2014-Aug-31 10:33N 34°40' E 135°11'1 0.6
2014-Aug-31 09:33N 34°40' E 135°11'1 1.2
2014-Aug-31 08:33N 34°39' E 135°11'2 2.2
2014-Aug-31 07:31N 34°41' E 135°11'3 3.1
2014-Aug-31 06:33N 34°38' E 135°10'3 2.8
2014-Aug-31 05:29N 34°41' E 135°11'1 0.6
2014-Aug-31 04:33N 34°40' E 135°11'3 2.8
2014-Aug-31 03:33N 34°38' E 135°10'3 3.1
2014-Aug-31 02:33N 34°41' E 135°11'3 0.2
2014-Aug-30 11:33N 34°38' E 135°11'2 1.8
2014-Aug-30 10:33N 34°40' E 135°11'0 0.1
2014-Aug-30 09:33N 34°40' E 135°11'1 1.4
2014-Aug-30 08:33N 34°39' E 135°11'2 2.2
2014-Aug-30 07:32N 34°41' E 135°11'3 3.2
2014-Aug-30 06:33N 34°38' E 135°09'3 3.1
2014-Aug-30 05:33N 34°41' E 135°11'0 0.3
2014-Aug-30 04:33N 34°41' E 135°11'2 2.5
2014-Aug-30 03:33N 34°38' E 135°10'3 2.6
2014-Aug-30 02:33N 34°41' E 135°11'3 0.2
2014-Aug-29 11:33N 34°38' E 135°10'2 2.3
2014-Aug-29 10:33N 34°40' E 135°11'1 1.1
2014-Aug-29 09:33N 34°39' E 135°11'0 0.5
2014-Aug-29 08:33N 34°39' E 135°11'2 2.1
2014-Aug-29 07:31N 34°41' E 135°11'3 3.5
2014-Aug-29 06:34N 34°38' E 135°10'3 3.3
2014-Aug-29 05:32N 34°41' E 135°11'1 0.5
2014-Aug-29 04:33N 34°40' E 135°11'3 2.9
2014-Aug-29 03:33N 34°38' E 135°09'3 3.1
2014-Aug-29 02:33N 34°41' E 135°11'2 0.1
2014-Aug-28 11:33N 34°39' E 135°11'2 1.8
2014-Aug-28 10:27N 34°41' E 135°11'2 2.1
2014-Aug-28 09:33N 34°39' E 135°11'0 0.5
2014-Aug-28 08:33N 34°39' E 135°11'2 2.0
2014-Aug-28 07:30N 34°41' E 135°11'3 3.1
2014-Aug-28 06:33N 34°38' E 135°10'3 2.9
2014-Aug-28 05:31N 34°41' E 135°11'0 0.4
2014-Aug-28 04:34N 34°40' E 135°11'3 3.1
2014-Aug-28 03:33N 34°38' E 135°09'3 0.2
2014-Aug-27 11:33N 34°40' E 135°12'1 1.2
2014-Aug-27 10:28N 34°41' E 135°11'2 1.7
2014-Aug-27 09:33N 34°39' E 135°11'1 1.0
2014-Aug-27 08:33N 34°38' E 135°11'2 2.4
2014-Aug-27 07:33N 34°41' E 135°11'3 2.9
2014-Aug-27 06:33N 34°38' E 135°09'3 2.8
2014-Aug-27 05:30N 34°41' E 135°11'1 0.6
2014-Aug-27 04:33N 34°40' E 135°11'3 3.1
2014-Aug-27 03:33N 34°38' E 135°09'3 3.4
2014-Aug-27 02:33N 34°41' E 135°11'3 0.2
2014-Aug-26 11:33N 34°38' E 135°11'2 1.9
2014-Aug-26 10:33N 34°40' E 135°11'0 0.4
2014-Aug-26 09:33N 34°39' E 135°11'1 1.1
2014-Aug-26 08:33N 34°39' E 135°11'2 2.2
2014-Aug-26 07:32N 34°41' E 135°11'3 3.3
2014-Aug-26 06:33N 34°38' E 135°09'3 3.2
2014-Aug-26 05:32N 34°41' E 135°11'0 0.5
2014-Aug-26 04:33N 34°40' E 135°11'3 2.9
2014-Aug-26 03:33N 34°38' E 135°09'3 3.1
2014-Aug-26 02:33N 34°41' E 135°11'3 0.2
2014-Aug-25 11:33N 34°38' E 135°10'2 1.9
2014-Aug-25 10:33N 34°40' E 135°11'1 0.8
2014-Aug-25 09:33N 34°39' E 135°11'1 0.7
2014-Aug-25 08:33N 34°39' E 135°11'2 2.3
2014-Aug-25 07:32N 34°41' E 135°11'3 3.5
2014-Aug-25 06:33N 34°38' E 135°09'3 3.4
2014-Aug-25 05:32N 34°41' E 135°11'0 0.5
2014-Aug-25 04:33N 34°40' E 135°11'3 2.7
2014-Aug-25 03:34N 34°38' E 135°10'3 2.7
2014-Aug-25 02:28N 34°41' E 135°11'3 0.2
2014-Aug-24 11:33N 34°38' E 135°09'3 3.3
2014-Aug-24 10:33N 34°41' E 135°11'1 0.9
2014-Aug-24 09:33N 34°40' E 135°12'1 1.5
2014-Aug-24 08:33N 34°39' E 135°11'2 1.9
2014-Aug-24 07:23N 34°41' E 135°11'3 3.3
2014-Aug-24 06:33N 34°38' E 135°10'3 2.6
2014-Aug-24 05:30N 34°41' E 135°11'0 0.4
2014-Aug-24 04:33N 34°41' E 135°11'3 2.9
2014-Aug-24 03:33N 34°38' E 135°10'3 3.2
2014-Aug-24 02:34N 34°41' E 135°11'3 0.1
2014-Aug-23 03:33N 34°38' E 135°09'1 0.1
2014-Aug-22 11:33N 34°38' E 135°11'  
Track history (hours):
 
Tides and Currents Weather Stations Pressure Air Temp Water Temp Dewpoint Dewpoint Depression Visibility Wind Speed Wind Dir Waves Ship Positions

Concerto

Last reported at 2014-Sep-01 11:33 UTC. Time now 2014-Sep-02 23:46 UTC.
Position N 34°38' E 135°11'.

Length 62 m; draft 3 m.

Type: Passenger vessel. MMSI: 431000448.

Date/timePositionNaut miles runAvg speedWind from/ knotsBaromVisibWave heightAir tempDewpointWater temp
2014-Sep-01 11:33N 34°38' E 135°11'2 1.7
2014-Sep-01 10:33N 34°40' E 135°11'1 0.8
2014-Sep-01 09:33N 34°39' E 135°11'1 0.7
2014-Sep-01 08:33N 34°38' E 135°11'2 2.3
2014-Sep-01 07:32N 34°41' E 135°11'4 3.6
2014-Sep-01 06:33N 34°38' E 135°09'4 3.1
2014-Sep-01 05:25N 34°41' E 135°11'1 0.8
2014-Sep-01 04:33N 34°40' E 135°12'3 3.0
2014-Sep-01 03:33N 34°38' E 135°09'3 3.3
2014-Sep-01 02:33N 34°41' E 135°11'3 0.2
2014-Aug-31 11:33N 34°38' E 135°10'3 2.6
2014-Aug-31 10:33N 34°40' E 135°11'1 0.6
2014-Aug-31 09:33N 34°40' E 135°11'1 1.2
2014-Aug-31 08:33N 34°39' E 135°11'2 2.2
2014-Aug-31 07:31N 34°41' E 135°11'3 3.1
2014-Aug-31 06:33N 34°38' E 135°10'3 2.8
2014-Aug-31 05:29N 34°41' E 135°11'1 0.6
2014-Aug-31 04:33N 34°40' E 135°11'3 2.8
2014-Aug-31 03:33N 34°38' E 135°10'3 3.1
2014-Aug-31 02:33N 34°41' E 135°11'3 0.2
2014-Aug-30 11:33N 34°38' E 135°11'2 1.8
2014-Aug-30 10:33N 34°40' E 135°11'0 0.1
2014-Aug-30 09:33N 34°40' E 135°11'1 1.4
2014-Aug-30 08:33N 34°39' E 135°11'2 2.2
2014-Aug-30 07:32N 34°41' E 135°11'3 3.2
2014-Aug-30 06:33N 34°38' E 135°09'3 3.1
2014-Aug-30 05:33N 34°41' E 135°11'0 0.3
2014-Aug-30 04:33N 34°41' E 135°11'2 2.5
2014-Aug-30 03:33N 34°38' E 135°10'3 2.6
2014-Aug-30 02:33N 34°41' E 135°11'3 0.2
2014-Aug-29 11:33N 34°38' E 135°10'2 2.3
2014-Aug-29 10:33N 34°40' E 135°11'1 1.1
2014-Aug-29 09:33N 34°39' E 135°11'0 0.5
2014-Aug-29 08:33N 34°39' E 135°11'2 2.1
2014-Aug-29 07:31N 34°41' E 135°11'3 3.5
2014-Aug-29 06:34N 34°38' E 135°10'3 3.3
2014-Aug-29 05:32N 34°41' E 135°11'1 0.5
2014-Aug-29 04:33N 34°40' E 135°11'3 2.9
2014-Aug-29 03:33N 34°38' E 135°09'3 3.1
2014-Aug-29 02:33N 34°41' E 135°11'2 0.1
2014-Aug-28 11:33N 34°39' E 135°11'2 1.8
2014-Aug-28 10:27N 34°41' E 135°11'2 2.1
2014-Aug-28 09:33N 34°39' E 135°11'0 0.5
2014-Aug-28 08:33N 34°39' E 135°11'2 2.0
2014-Aug-28 07:30N 34°41' E 135°11'3 3.1
2014-Aug-28 06:33N 34°38' E 135°10'3 2.9
2014-Aug-28 05:31N 34°41' E 135°11'0 0.4
2014-Aug-28 04:34N 34°40' E 135°11'3 3.1
2014-Aug-28 03:33N 34°38' E 135°09'3 0.2
2014-Aug-27 11:33N 34°40' E 135°12'1 1.2
2014-Aug-27 10:28N 34°41' E 135°11'2 1.7
2014-Aug-27 09:33N 34°39' E 135°11'1 1.0
2014-Aug-27 08:33N 34°38' E 135°11'2 2.4
2014-Aug-27 07:33N 34°41' E 135°11'3 2.9
2014-Aug-27 06:33N 34°38' E 135°09'3 2.8
2014-Aug-27 05:30N 34°41' E 135°11'1 0.6
2014-Aug-27 04:33N 34°40' E 135°11'3 3.1
2014-Aug-27 03:33N 34°38' E 135°09'3 3.4
2014-Aug-27 02:33N 34°41' E 135°11'3 0.2
2014-Aug-26 11:33N 34°38' E 135°11'2 1.9
2014-Aug-26 10:33N 34°40' E 135°11'0 0.4
2014-Aug-26 09:33N 34°39' E 135°11'1 1.1
2014-Aug-26 08:33N 34°39' E 135°11'2 2.2
2014-Aug-26 07:32N 34°41' E 135°11'3 3.3
2014-Aug-26 06:33N 34°38' E 135°09'3 3.2
2014-Aug-26 05:32N 34°41' E 135°11'0 0.5
2014-Aug-26 04:33N 34°40' E 135°11'3 2.9
2014-Aug-26 03:33N 34°38' E 135°09'3 3.1
2014-Aug-26 02:33N 34°41' E 135°11'3 0.2
2014-Aug-25 11:33N 34°38' E 135°10'2 1.9
2014-Aug-25 10:33N 34°40' E 135°11'1 0.8
2014-Aug-25 09:33N 34°39' E 135°11'1 0.7
2014-Aug-25 08:33N 34°39' E 135°11'2 2.3
2014-Aug-25 07:32N 34°41' E 135°11'3 3.5
2014-Aug-25 06:33N 34°38' E 135°09'3 3.4
2014-Aug-25 05:32N 34°41' E 135°11'0 0.5
2014-Aug-25 04:33N 34°40' E 135°11'3 2.7
2014-Aug-25 03:34N 34°38' E 135°10'3 2.7
2014-Aug-25 02:28N 34°41' E 135°11'3 0.2
2014-Aug-24 11:33N 34°38' E 135°09'3 3.3
2014-Aug-24 10:33N 34°41' E 135°11'1 0.9
2014-Aug-24 09:33N 34°40' E 135°12'1 1.5
2014-Aug-24 08:33N 34°39' E 135°11'2 1.9
2014-Aug-24 07:23N 34°41' E 135°11'3 3.3
2014-Aug-24 06:33N 34°38' E 135°10'3 2.6
2014-Aug-24 05:30N 34°41' E 135°11'0 0.4
2014-Aug-24 04:33N 34°41' E 135°11'3 2.9
2014-Aug-24 03:33N 34°38' E 135°10'3 3.2
2014-Aug-24 02:34N 34°41' E 135°11'3 0.1
2014-Aug-23 03:33N 34°38' E 135°09'1 0.1
2014-Aug-22 11:33N 34°38' E 135°11'  

Dump ship's entire track history